sensor_id;sensor_type;location;lat;lon;timestamp;temperature;humidity
31084;DHT22;36333;51.382;0.016;2022-07-12T00:00:39;21.50;75.00
31084;DHT22;36333;51.382;0.016;2022-07-12T00:03:06;21.50;75.10
31084;DHT22;36333;51.382;0.016;2022-07-12T00:05:34;21.50;75.00
31084;DHT22;36333;51.382;0.016;2022-07-12T00:08:01;21.50;74.70
31084;DHT22;36333;51.382;0.016;2022-07-12T00:10:28;21.40;73.40
31084;DHT22;36333;51.382;0.016;2022-07-12T00:12:56;21.40;73.90
31084;DHT22;36333;51.382;0.016;2022-07-12T00:15:23;21.30;73.60
31084;DHT22;36333;51.382;0.016;2022-07-12T00:17:51;21.40;74.00
31084;DHT22;36333;51.382;0.016;2022-07-12T00:20:18;21.30;73.80
31084;DHT22;36333;51.382;0.016;2022-07-12T00:22:45;21.30;74.10
31084;DHT22;36333;51.382;0.016;2022-07-12T00:25:13;21.30;74.30
31084;DHT22;36333;51.382;0.016;2022-07-12T00:27:41;21.30;74.60
31084;DHT22;36333;51.382;0.016;2022-07-12T00:30:09;21.30;73.80
31084;DHT22;36333;51.382;0.016;2022-07-12T00:32:36;21.20;74.10
31084;DHT22;36333;51.382;0.016;2022-07-12T00:35:04;21.20;74.70
31084;DHT22;36333;51.382;0.016;2022-07-12T00:37:32;22.20;74.90
31084;DHT22;36333;51.382;0.016;2022-07-12T00:40:00;21.20;74.30
31084;DHT22;36333;51.382;0.016;2022-07-12T00:42:28;21.10;73.60
31084;DHT22;36333;51.382;0.016;2022-07-12T00:44:56;21.10;74.10
31084;DHT22;36333;51.382;0.016;2022-07-12T00:49:50;21.10;74.40
31084;DHT22;36333;51.382;0.016;2022-07-12T00:52:18;21.10;74.80
31084;DHT22;36333;51.382;0.016;2022-07-12T00:54:45;21.00;74.60
31084;DHT22;36333;51.382;0.016;2022-07-12T00:57:12;21.00;74.70
31084;DHT22;36333;51.382;0.016;2022-07-12T00:59:40;21.00;74.90
31084;DHT22;36333;51.382;0.016;2022-07-12T01:02:07;21.00;75.30
31084;DHT22;36333;51.382;0.016;2022-07-12T01:04:35;21.00;75.00
31084;DHT22;36333;51.382;0.016;2022-07-12T01:07:07;20.90;75.20
31084;DHT22;36333;51.382;0.016;2022-07-12T01:09:35;20.90;75.60
31084;DHT22;36333;51.382;0.016;2022-07-12T01:12:02;20.90;75.60
31084;DHT22;36333;51.382;0.016;2022-07-12T01:14:31;20.90;75.60
31084;DHT22;36333;51.382;0.016;2022-07-12T01:16:58;20.80;75.50
31084;DHT22;36333;51.382;0.016;2022-07-12T01:19:26;20.80;75.50
31084;DHT22;36333;51.382;0.016;2022-07-12T01:21:53;20.70;75.40
31084;DHT22;36333;51.382;0.016;2022-07-12T01:24:23;20.70;76.00
31084;DHT22;36333;51.382;0.016;2022-07-12T01:26:51;20.70;76.40
31084;DHT22;36333;51.382;0.016;2022-07-12T01:29:19;20.60;76.50
31084;DHT22;36333;51.382;0.016;2022-07-12T01:31:46;20.60;76.70
31084;DHT22;36333;51.382;0.016;2022-07-12T01:34:14;20.50;76.50
31084;DHT22;36333;51.382;0.016;2022-07-12T01:36:41;20.50;77.10
31084;DHT22;36333;51.382;0.016;2022-07-12T01:39:09;20.40;76.80
31084;DHT22;36333;51.382;0.016;2022-07-12T01:41:37;20.40;77.20
31084;DHT22;36333;51.382;0.016;2022-07-12T01:44:05;20.30;77.20
31084;DHT22;36333;51.382;0.016;2022-07-12T01:46:33;20.30;77.00
31084;DHT22;36333;51.382;0.016;2022-07-12T01:49:00;20.30;76.50
31084;DHT22;36333;51.382;0.016;2022-07-12T01:51:29;20.20;76.80
31084;DHT22;36333;51.382;0.016;2022-07-12T01:53:58;20.20;77.00
31084;DHT22;36333;51.382;0.016;2022-07-12T01:56:25;20.20;77.40
31084;DHT22;36333;51.382;0.016;2022-07-12T01:58:53;20.20;77.20
31084;DHT22;36333;51.382;0.016;2022-07-12T02:01:20;20.20;77.10
31084;DHT22;36333;51.382;0.016;2022-07-12T02:03:49;20.20;77.60
31084;DHT22;36333;51.382;0.016;2022-07-12T02:06:16;20.20;77.30
31084;DHT22;36333;51.382;0.016;2022-07-12T02:08:44;20.10;77.30
31084;DHT22;36333;51.382;0.016;2022-07-12T02:11:11;20.10;77.60
31084;DHT22;36333;51.382;0.016;2022-07-12T02:13:39;20.10;78.00
31084;DHT22;36333;51.382;0.016;2022-07-12T02:16:06;20.10;77.70
31084;DHT22;36333;51.382;0.016;2022-07-12T02:18:34;20.10;77.70
31084;DHT22;36333;51.382;0.016;2022-07-12T02:21:01;20.10;77.90
31084;DHT22;36333;51.382;0.016;2022-07-12T02:23:29;20.10;78.20
31084;DHT22;36333;51.382;0.016;2022-07-12T02:25:56;20.00;77.70
31084;DHT22;36333;51.382;0.016;2022-07-12T02:28:23;20.00;78.20
31084;DHT22;36333;51.382;0.016;2022-07-12T02:30:51;20.00;78.30
31084;DHT22;36333;51.382;0.016;2022-07-12T02:33:18;20.00;78.20
31084;DHT22;36333;51.382;0.016;2022-07-12T02:35:47;20.10;78.20
31084;DHT22;36333;51.382;0.016;2022-07-12T02:38:14;20.00;78.70
31084;DHT22;36333;51.382;0.016;2022-07-12T02:40:41;20.00;78.50
31084;DHT22;36333;51.382;0.016;2022-07-12T02:43:25;20.00;78.40
31084;DHT22;36333;51.382;0.016;2022-07-12T02:45:52;20.00;78.80
31084;DHT22;36333;51.382;0.016;2022-07-12T02:48:20;20.00;78.50
31084;DHT22;36333;51.382;0.016;2022-07-12T02:50:48;20.00;78.90
31084;DHT22;36333;51.382;0.016;2022-07-12T02:53:15;20.00;78.90
31084;DHT22;36333;51.382;0.016;2022-07-12T02:55:43;20.00;79.00
31084;DHT22;36333;51.382;0.016;2022-07-12T02:58:11;20.00;78.90
31084;DHT22;36333;51.382;0.016;2022-07-12T03:00:39;20.00;79.40
31084;DHT22;36333;51.382;0.016;2022-07-12T03:03:06;20.00;79.00
31084;DHT22;36333;51.382;0.016;2022-07-12T03:05:35;20.00;78.90
31084;DHT22;36333;51.382;0.016;2022-07-12T03:08:03;20.00;79.20
31084;DHT22;36333;51.382;0.016;2022-07-12T03:10:30;20.00;79.10
31084;DHT22;36333;51.382;0.016;2022-07-12T03:12:58;19.90;79.40
31084;DHT22;36333;51.382;0.016;2022-07-12T03:15:25;19.90;80.00
31084;DHT22;36333;51.382;0.016;2022-07-12T03:17:53;19.80;79.80
31084;DHT22;36333;51.382;0.016;2022-07-12T03:20:20;19.70;80.00
31084;DHT22;36333;51.382;0.016;2022-07-12T03:22:48;19.70;80.20
31084;DHT22;36333;51.382;0.016;2022-07-12T03:25:20;19.70;80.30
31084;DHT22;36333;51.382;0.016;2022-07-12T03:27:47;19.60;80.40
31084;DHT22;36333;51.382;0.016;2022-07-12T03:30:15;19.60;81.00
31084;DHT22;36333;51.382;0.016;2022-07-12T03:32:43;19.60;81.20
31084;DHT22;36333;51.382;0.016;2022-07-12T03:35:11;19.50;80.70
31084;DHT22;36333;51.382;0.016;2022-07-12T03:38:12;19.50;81.30
31084;DHT22;36333;51.382;0.016;2022-07-12T03:40:32;19.50;81.50
31084;DHT22;36333;51.382;0.016;2022-07-12T03:43:01;19.50;81.60
31084;DHT22;36333;51.382;0.016;2022-07-12T03:45:29;19.40;81.80
31084;DHT22;36333;51.382;0.016;2022-07-12T03:47:56;19.40;81.90
31084;DHT22;36333;51.382;0.016;2022-07-12T03:50:24;19.40;81.30
31084;DHT22;36333;51.382;0.016;2022-07-12T03:52:51;19.40;81.40
31084;DHT22;36333;51.382;0.016;2022-07-12T03:55:19;19.40;81.60
31084;DHT22;36333;51.382;0.016;2022-07-12T03:57:47;19.40;81.70
31084;DHT22;36333;51.382;0.016;2022-07-12T04:00:15;19.40;81.60
31084;DHT22;36333;51.382;0.016;2022-07-12T04:02:42;19.40;81.90
31084;DHT22;36333;51.382;0.016;2022-07-12T04:05:11;19.40;82.00
31084;DHT22;36333;51.382;0.016;2022-07-12T04:07:38;19.40;81.80
31084;DHT22;36333;51.382;0.016;2022-07-12T04:10:06;19.30;82.20
31084;DHT22;36333;51.382;0.016;2022-07-12T04:12:34;19.30;82.40
31084;DHT22;36333;51.382;0.016;2022-07-12T04:15:02;19.30;81.70
31084;DHT22;36333;51.382;0.016;2022-07-12T04:17:30;19.30;82.90
31084;DHT22;36333;51.382;0.016;2022-07-12T04:19:57;19.30;83.10
31084;DHT22;36333;51.382;0.016;2022-07-12T04:22:24;19.40;83.20
31084;DHT22;36333;51.382;0.016;2022-07-12T04:24:52;19.30;82.80
31084;DHT22;36333;51.382;0.016;2022-07-12T04:27:19;19.40;82.50
31084;DHT22;36333;51.382;0.016;2022-07-12T04:29:47;19.40;83.50
31084;DHT22;36333;51.382;0.016;2022-07-12T04:32:14;19.40;83.80
31084;DHT22;36333;51.382;0.016;2022-07-12T04:34:41;19.40;82.50
31084;DHT22;36333;51.382;0.016;2022-07-12T04:37:09;19.40;83.00
31084;DHT22;36333;51.382;0.016;2022-07-12T04:39:36;19.40;82.60
31084;DHT22;36333;51.382;0.016;2022-07-12T04:42:04;19.40;83.70
31084;DHT22;36333;51.382;0.016;2022-07-12T04:44:32;19.50;83.70
31084;DHT22;36333;51.382;0.016;2022-07-12T04:46:59;19.50;83.80
31084;DHT22;36333;51.382;0.016;2022-07-12T04:49:27;19.50;83.80
31084;DHT22;36333;51.382;0.016;2022-07-12T04:51:54;19.50;83.60
31084;DHT22;36333;51.382;0.016;2022-07-12T04:54:21;19.50;84.20
31084;DHT22;36333;51.382;0.016;2022-07-12T04:56:49;19.50;82.80
31084;DHT22;36333;51.382;0.016;2022-07-12T04:59:16;19.50;84.40
31084;DHT22;36333;51.382;0.016;2022-07-12T05:01:44;19.50;83.90
31084;DHT22;36333;51.382;0.016;2022-07-12T05:04:12;19.60;83.10
31084;DHT22;36333;51.382;0.016;2022-07-12T05:06:40;19.60;83.30
31084;DHT22;36333;51.382;0.016;2022-07-12T05:09:08;19.60;83.00
31084;DHT22;36333;51.382;0.016;2022-07-12T05:11:35;19.70;83.60
31084;DHT22;36333;51.382;0.016;2022-07-12T05:14:03;19.70;84.10
31084;DHT22;36333;51.382;0.016;2022-07-12T05:16:31;19.70;83.90
31084;DHT22;36333;51.382;0.016;2022-07-12T05:18:59;19.80;83.80
31084;DHT22;36333;51.382;0.016;2022-07-12T05:21:26;19.90;84.90
31084;DHT22;36333;51.382;0.016;2022-07-12T05:23:54;19.80;84.20
31084;DHT22;36333;51.382;0.016;2022-07-12T05:26:21;19.90;84.40
31084;DHT22;36333;51.382;0.016;2022-07-12T05:28:48;19.90;84.50
31084;DHT22;36333;51.382;0.016;2022-07-12T05:31:16;19.90;83.60
31084;DHT22;36333;51.382;0.016;2022-07-12T05:33:43;19.90;83.80
31084;DHT22;36333;51.382;0.016;2022-07-12T05:36:11;20.00;84.10
31084;DHT22;36333;51.382;0.016;2022-07-12T05:38:38;20.00;85.00
31084;DHT22;36333;51.382;0.016;2022-07-12T05:41:06;20.10;84.40
31084;DHT22;36333;51.382;0.016;2022-07-12T05:43:33;20.20;84.80
31084;DHT22;36333;51.382;0.016;2022-07-12T05:46:01;20.20;84.50
31084;DHT22;36333;51.382;0.016;2022-07-12T05:48:29;20.00;84.30
31084;DHT22;36333;51.382;0.016;2022-07-12T05:50:56;20.30;84.30
31084;DHT22;36333;51.382;0.016;2022-07-12T05:53:43;20.30;84.50
31084;DHT22;36333;51.382;0.016;2022-07-12T05:56:11;20.30;84.70
31084;DHT22;36333;51.382;0.016;2022-07-12T05:58:39;20.30;84.50
31084;DHT22;36333;51.382;0.016;2022-07-12T06:01:07;20.30;85.40
31084;DHT22;36333;51.382;0.016;2022-07-12T06:03:34;20.30;85.00
31084;DHT22;36333;51.382;0.016;2022-07-12T06:06:02;20.40;85.60
31084;DHT22;36333;51.382;0.016;2022-07-12T06:08:29;20.40;86.10
31084;DHT22;36333;51.382;0.016;2022-07-12T06:10:57;20.40;85.60
31084;DHT22;36333;51.382;0.016;2022-07-12T06:13:24;20.50;85.60
31084;DHT22;36333;51.382;0.016;2022-07-12T06:15:52;20.50;85.70
31084;DHT22;36333;51.382;0.016;2022-07-12T06:18:19;20.60;85.70
31084;DHT22;36333;51.382;0.016;2022-07-12T06:20:47;20.70;86.30
31084;DHT22;36333;51.382;0.016;2022-07-12T06:23:14;20.80;85.70
31084;DHT22;36333;51.382;0.016;2022-07-12T06:25:42;20.80;85.70
31084;DHT22;36333;51.382;0.016;2022-07-12T06:28:11;20.90;84.70
31084;DHT22;36333;51.382;0.016;2022-07-12T06:30:39;21.00;85.10
31084;DHT22;36333;51.382;0.016;2022-07-12T06:33:06;21.10;84.60
31084;DHT22;36333;51.382;0.016;2022-07-12T06:35:34;21.10;84.30
31084;DHT22;36333;51.382;0.016;2022-07-12T06:38:02;21.30;84.60
31084;DHT22;36333;51.382;0.016;2022-07-12T06:40:29;21.40;84.20
31084;DHT22;36333;51.382;0.016;2022-07-12T06:42:57;21.50;84.00
31084;DHT22;36333;51.382;0.016;2022-07-12T06:45:24;21.60;83.90
31084;DHT22;36333;51.382;0.016;2022-07-12T06:47:52;21.70;83.70
31084;DHT22;36333;51.382;0.016;2022-07-12T06:50:19;21.90;83.40
31084;DHT22;36333;51.382;0.016;2022-07-12T06:52:47;22.00;82.70
31084;DHT22;36333;51.382;0.016;2022-07-12T06:55:15;22.10;82.60
31084;DHT22;36333;51.382;0.016;2022-07-12T06:57:43;22.30;82.70
31084;DHT22;36333;51.382;0.016;2022-07-12T07:00:10;22.40;81.90
31084;DHT22;36333;51.382;0.016;2022-07-12T07:02:38;22.50;81.90
31084;DHT22;36333;51.382;0.016;2022-07-12T07:05:07;22.50;81.70
31084;DHT22;36333;51.382;0.016;2022-07-12T07:07:34;22.60;81.70
31084;DHT22;36333;51.382;0.016;2022-07-12T07:10:02;22.70;81.70
31084;DHT22;36333;51.382;0.016;2022-07-12T07:12:29;22.70;82.10
31084;DHT22;36333;51.382;0.016;2022-07-12T07:15:00;22.70;81.80
31084;DHT22;36333;51.382;0.016;2022-07-12T07:17:27;22.70;81.90
31084;DHT22;36333;51.382;0.016;2022-07-12T07:19:55;22.70;81.90
31084;DHT22;36333;51.382;0.016;2022-07-12T07:22:22;22.70;81.60
31084;DHT22;36333;51.382;0.016;2022-07-12T07:24:50;22.80;82.20
31084;DHT22;36333;51.382;0.016;2022-07-12T07:27:17;22.80;81.70
31084;DHT22;36333;51.382;0.016;2022-07-12T07:29:44;22.80;81.50
31084;DHT22;36333;51.382;0.016;2022-07-12T07:32:31;22.90;81.50
31084;DHT22;36333;51.382;0.016;2022-07-12T07:34:58;22.90;81.20
31084;DHT22;36333;51.382;0.016;2022-07-12T07:37:25;23.00;81.30
31084;DHT22;36333;51.382;0.016;2022-07-12T07:39:53;23.00;81.00
31084;DHT22;36333;51.382;0.016;2022-07-12T07:42:20;23.00;81.10
31084;DHT22;36333;51.382;0.016;2022-07-12T07:44:48;23.10;80.60
31084;DHT22;36333;51.382;0.016;2022-07-12T07:47:45;23.20;80.60
31084;DHT22;36333;51.382;0.016;2022-07-12T07:50:32;23.30;80.30
31084;DHT22;36333;51.382;0.016;2022-07-12T07:53:00;23.40;80.30
31084;DHT22;36333;51.382;0.016;2022-07-12T07:55:27;23.50;79.90
31084;DHT22;36333;51.382;0.016;2022-07-12T07:57:55;23.60;79.60
31084;DHT22;36333;51.382;0.016;2022-07-12T08:00:22;23.80;79.00
31084;DHT22;36333;51.382;0.016;2022-07-12T08:02:50;24.00;78.90
31084;DHT22;36333;51.382;0.016;2022-07-12T08:05:17;24.20;78.10
31084;DHT22;36333;51.382;0.016;2022-07-12T08:07:48;24.40;77.60
31084;DHT22;36333;51.382;0.016;2022-07-12T08:10:29;24.50;77.20
31084;DHT22;36333;51.382;0.016;2022-07-12T08:12:57;24.70;76.30
31084;DHT22;36333;51.382;0.016;2022-07-12T08:15:24;24.70;76.10
31084;DHT22;36333;51.382;0.016;2022-07-12T08:17:52;24.80;75.70
31084;DHT22;36333;51.382;0.016;2022-07-12T08:20:22;24.90;75.70
31084;DHT22;36333;51.382;0.016;2022-07-12T08:23:09;25.00;75.40
31084;DHT22;36333;51.382;0.016;2022-07-12T08:25:37;25.00;74.70
31084;DHT22;36333;51.382;0.016;2022-07-12T08:28:04;25.10;74.30
31084;DHT22;36333;51.382;0.016;2022-07-12T08:30:32;25.20;74.40
31084;DHT22;36333;51.382;0.016;2022-07-12T08:32:59;25.30;74.60
31084;DHT22;36333;51.382;0.016;2022-07-12T08:35:27;25.30;75.20
31084;DHT22;36333;51.382;0.016;2022-07-12T08:37:56;25.50;74.60
31084;DHT22;36333;51.382;0.016;2022-07-12T08:40:24;25.60;74.60
31084;DHT22;36333;51.382;0.016;2022-07-12T08:42:51;25.90;74.50
31084;DHT22;36333;51.382;0.016;2022-07-12T08:45:19;25.80;74.10
31084;DHT22;36333;51.382;0.016;2022-07-12T08:47:46;25.90;73.40
31084;DHT22;36333;51.382;0.016;2022-07-12T08:50:20;26.10;73.50
31084;DHT22;36333;51.382;0.016;2022-07-12T08:52:48;26.20;73.10
31084;DHT22;36333;51.382;0.016;2022-07-12T08:55:19;26.40;72.40
31084;DHT22;36333;51.382;0.016;2022-07-12T08:57:48;26.40;72.10
31084;DHT22;36333;51.382;0.016;2022-07-12T09:00:16;26.50;72.30
31084;DHT22;36333;51.382;0.016;2022-07-12T09:02:45;26.50;72.00
31084;DHT22;36333;51.382;0.016;2022-07-12T09:05:13;26.50;71.90
31084;DHT22;36333;51.382;0.016;2022-07-12T09:07:41;26.50;71.80
31084;DHT22;36333;51.382;0.016;2022-07-12T09:10:09;26.40;71.80
31084;DHT22;36333;51.382;0.016;2022-07-12T09:12:37;26.40;72.00
31084;DHT22;36333;51.382;0.016;2022-07-12T09:15:16;26.30;71.80
31084;DHT22;36333;51.382;0.016;2022-07-12T09:17:58;26.30;72.10
31084;DHT22;36333;51.382;0.016;2022-07-12T09:20:35;26.20;72.30
31084;DHT22;36333;51.382;0.016;2022-07-12T09:23:07;26.10;72.60
31084;DHT22;36333;51.382;0.016;2022-07-12T09:25:35;26.10;72.50
31084;DHT22;36333;51.382;0.016;2022-07-12T09:28:03;26.10;73.00
31084;DHT22;36333;51.382;0.016;2022-07-12T09:30:31;26.00;74.10
31084;DHT22;36333;51.382;0.016;2022-07-12T09:33:02;26.10;73.70
31084;DHT22;36333;51.382;0.016;2022-07-12T09:36:01;26.00;73.60
31084;DHT22;36333;51.382;0.016;2022-07-12T09:41:13;26.40;73.00
31084;DHT22;36333;51.382;0.016;2022-07-12T09:43:43;26.50;72.10
31084;DHT22;36333;51.382;0.016;2022-07-12T09:46:12;26.80;70.70
31084;DHT22;36333;51.382;0.016;2022-07-12T09:48:41;27.60;71.10
31084;DHT22;36333;51.382;0.016;2022-07-12T09:51:08;27.00;69.00
31084;DHT22;36333;51.382;0.016;2022-07-12T09:53:46;27.10;67.70
31084;DHT22;36333;51.382;0.016;2022-07-12T09:56:15;27.10;67.70
31084;DHT22;36333;51.382;0.016;2022-07-12T09:58:56;27.20;67.60
31084;DHT22;36333;51.382;0.016;2022-07-12T10:01:24;27.30;67.40
31084;DHT22;36333;51.382;0.016;2022-07-12T10:03:52;27.20;67.70
31084;DHT22;36333;51.382;0.016;2022-07-12T10:06:24;27.30;67.70
31084;DHT22;36333;51.382;0.016;2022-07-12T10:09:00;27.30;67.50
31084;DHT22;36333;51.382;0.016;2022-07-12T10:11:28;27.40;67.60
31084;DHT22;36333;51.382;0.016;2022-07-12T10:14:16;27.50;66.80
31084;DHT22;36333;51.382;0.016;2022-07-12T10:16:44;27.50;66.90
31084;DHT22;36333;51.382;0.016;2022-07-12T10:19:28;27.50;67.40
31084;DHT22;36333;51.382;0.016;2022-07-12T10:21:56;27.60;67.40
31084;DHT22;36333;51.382;0.016;2022-07-12T10:27:43;27.80;66.80
31084;DHT22;36333;51.382;0.016;2022-07-12T10:29:47;27.90;66.30
31084;DHT22;36333;51.382;0.016;2022-07-12T10:32:25;27.90;66.60
31084;DHT22;36333;51.382;0.016;2022-07-12T10:35:00;28.00;66.70
31084;DHT22;36333;51.382;0.016;2022-07-12T10:37:29;27.90;66.10
31084;DHT22;36333;51.382;0.016;2022-07-12T10:40:12;28.10;66.60
31084;DHT22;36333;51.382;0.016;2022-07-12T10:42:47;28.20;66.00
31084;DHT22;36333;51.382;0.016;2022-07-12T10:48:05;28.30;66.40
31084;DHT22;36333;51.382;0.016;2022-07-12T10:56:09;28.50;66.20
31084;DHT22;36333;51.382;0.016;2022-07-12T10:58:38;28.60;66.20
31084;DHT22;36333;51.382;0.016;2022-07-12T11:01:06;28.70;66.00
31084;DHT22;36333;51.382;0.016;2022-07-12T11:03:42;28.70;65.90
31084;DHT22;36333;51.382;0.016;2022-07-12T11:06:10;28.70;65.70
31084;DHT22;36333;51.382;0.016;2022-07-12T11:11:26;28.90;66.70
31084;DHT22;36333;51.382;0.016;2022-07-12T11:13:54;29.00;65.70
31084;DHT22;36333;51.382;0.016;2022-07-12T11:16:22;29.10;65.80
31084;DHT22;36333;51.382;0.016;2022-07-12T11:18:51;29.20;65.80
31084;DHT22;36333;51.382;0.016;2022-07-12T11:21:19;29.20;66.10
31084;DHT22;36333;51.382;0.016;2022-07-12T11:23:48;29.10;66.10
31084;DHT22;36333;51.382;0.016;2022-07-12T11:26:15;29.10;65.80
31084;DHT22;36333;51.382;0.016;2022-07-12T11:28:43;29.10;66.00
31084;DHT22;36333;51.382;0.016;2022-07-12T11:31:12;29.00;65.50
31084;DHT22;36333;51.382;0.016;2022-07-12T11:33:40;29.00;65.90
31084;DHT22;36333;51.382;0.016;2022-07-12T11:36:09;29.10;66.30
31084;DHT22;36333;51.382;0.016;2022-07-12T11:38:38;29.10;66.80
31084;DHT22;36333;51.382;0.016;2022-07-12T11:41:11;29.20;66.30
31084;DHT22;36333;51.382;0.016;2022-07-12T11:43:39;29.20;66.10
31084;DHT22;36333;51.382;0.016;2022-07-12T11:46:07;29.30;66.20
31084;DHT22;36333;51.382;0.016;2022-07-12T11:48:36;29.50;66.20
31084;DHT22;36333;51.382;0.016;2022-07-12T11:51:04;29.70;64.60
31084;DHT22;36333;51.382;0.016;2022-07-12T11:53:33;29.90;64.80
31084;DHT22;36333;51.382;0.016;2022-07-12T11:56:01;29.80;64.60
31084;DHT22;36333;51.382;0.016;2022-07-12T11:58:29;29.80;64.60
31084;DHT22;36333;51.382;0.016;2022-07-12T12:00:56;29.90;64.60
31084;DHT22;36333;51.382;0.016;2022-07-12T12:03:24;30.00;64.00
31084;DHT22;36333;51.382;0.016;2022-07-12T12:05:53;30.10;63.60
31084;DHT22;36333;51.382;0.016;2022-07-12T12:08:20;30.20;64.10
31084;DHT22;36333;51.382;0.016;2022-07-12T12:10:52;30.20;63.20
31084;DHT22;36333;51.382;0.016;2022-07-12T12:13:20;30.30;63.70
31084;DHT22;36333;51.382;0.016;2022-07-12T12:15:51;30.30;62.70
31084;DHT22;36333;51.382;0.016;2022-07-12T12:18:33;30.40;62.10
31084;DHT22;36333;51.382;0.016;2022-07-12T12:21:03;30.40;60.30
31084;DHT22;36333;51.382;0.016;2022-07-12T12:23:31;30.40;60.20
31084;DHT22;36333;51.382;0.016;2022-07-12T12:28:55;30.30;60.10
31084;DHT22;36333;51.382;0.016;2022-07-12T12:31:23;30.40;60.30
31084;DHT22;36333;51.382;0.016;2022-07-12T12:33:51;30.50;60.40
31084;DHT22;36333;51.382;0.016;2022-07-12T12:38:54;30.80;58.50
31084;DHT22;36333;51.382;0.016;2022-07-12T12:41:22;30.80;58.20
31084;DHT22;36333;51.382;0.016;2022-07-12T12:49:13;30.60;58.80
31084;DHT22;36333;51.382;0.016;2022-07-12T12:51:50;30.60;58.40
31084;DHT22;36333;51.382;0.016;2022-07-12T12:54:34;30.70;58.70
31084;DHT22;36333;51.382;0.016;2022-07-12T12:57:01;30.80;58.50
31084;DHT22;36333;51.382;0.016;2022-07-12T12:59:29;31.00;58.70
31084;DHT22;36333;51.382;0.016;2022-07-12T13:01:57;31.20;59.30
31084;DHT22;36333;51.382;0.016;2022-07-12T13:04:42;30.80;58.70
31084;DHT22;36333;51.382;0.016;2022-07-12T13:07:10;31.60;58.80
31084;DHT22;36333;51.382;0.016;2022-07-12T13:09:40;31.80;59.50
31084;DHT22;36333;51.382;0.016;2022-07-12T13:12:07;31.60;59.30
31084;DHT22;36333;51.382;0.016;2022-07-12T13:14:35;31.50;59.00
31084;DHT22;36333;51.382;0.016;2022-07-12T13:17:02;31.40;59.00
31084;DHT22;36333;51.382;0.016;2022-07-12T13:19:30;31.20;58.90
31084;DHT22;36333;51.382;0.016;2022-07-12T13:21:59;31.10;59.60
31084;DHT22;36333;51.382;0.016;2022-07-12T13:24:27;31.00;59.90
31084;DHT22;36333;51.382;0.016;2022-07-12T13:26:54;31.10;60.60
31084;DHT22;36333;51.382;0.016;2022-07-12T13:29:22;30.90;60.20
31084;DHT22;36333;51.382;0.016;2022-07-12T13:31:49;30.80;60.50
31084;DHT22;36333;51.382;0.016;2022-07-12T13:34:23;30.90;60.50
31084;DHT22;36333;51.382;0.016;2022-07-12T13:36:51;30.90;60.60
31084;DHT22;36333;51.382;0.016;2022-07-12T13:39:19;31.00;61.10
31084;DHT22;36333;51.382;0.016;2022-07-12T13:42:05;31.20;60.50
31084;DHT22;36333;51.382;0.016;2022-07-12T13:44:33;31.10;59.90
31084;DHT22;36333;51.382;0.016;2022-07-12T13:47:00;31.40;59.80
31084;DHT22;36333;51.382;0.016;2022-07-12T13:49:27;31.60;59.40
31084;DHT22;36333;51.382;0.016;2022-07-12T13:51:55;31.60;58.80
31084;DHT22;36333;51.382;0.016;2022-07-12T13:54:22;31.60;59.70
31084;DHT22;36333;51.382;0.016;2022-07-12T13:56:50;31.70;58.80
31084;DHT22;36333;51.382;0.016;2022-07-12T13:59:17;31.60;59.20
31084;DHT22;36333;51.382;0.016;2022-07-12T14:01:44;31.50;59.50
31084;DHT22;36333;51.382;0.016;2022-07-12T14:04:12;31.40;59.40
31084;DHT22;36333;51.382;0.016;2022-07-12T14:06:40;31.30;59.30
31084;DHT22;36333;51.382;0.016;2022-07-12T14:09:07;31.30;59.80
31084;DHT22;36333;51.382;0.016;2022-07-12T14:11:34;31.30;60.30
31084;DHT22;36333;51.382;0.016;2022-07-12T14:14:02;31.50;60.20
31084;DHT22;36333;51.382;0.016;2022-07-12T14:16:29;31.30;59.50
31084;DHT22;36333;51.382;0.016;2022-07-12T14:18:57;31.10;59.80
31084;DHT22;36333;51.382;0.016;2022-07-12T14:21:25;31.10;59.80
31084;DHT22;36333;51.382;0.016;2022-07-12T14:23:57;31.10;60.20
31084;DHT22;36333;51.382;0.016;2022-07-12T14:26:28;31.00;60.30
31084;DHT22;36333;51.382;0.016;2022-07-12T14:28:55;31.00;60.10
31084;DHT22;36333;51.382;0.016;2022-07-12T14:31:23;30.90;59.80
31084;DHT22;36333;51.382;0.016;2022-07-12T14:33:51;30.90;60.10
31084;DHT22;36333;51.382;0.016;2022-07-12T14:36:18;30.90;60.00
31084;DHT22;36333;51.382;0.016;2022-07-12T14:38:47;30.90;59.70
31084;DHT22;36333;51.382;0.016;2022-07-12T14:41:19;30.90;59.70
31084;DHT22;36333;51.382;0.016;2022-07-12T14:43:47;30.90;60.10
31084;DHT22;36333;51.382;0.016;2022-07-12T14:46:16;31.00;59.50
31084;DHT22;36333;51.382;0.016;2022-07-12T14:48:47;31.10;59.40
31084;DHT22;36333;51.382;0.016;2022-07-12T14:51:14;31.10;59.40
31084;DHT22;36333;51.382;0.016;2022-07-12T14:53:42;31.00;59.60
31084;DHT22;36333;51.382;0.016;2022-07-12T14:56:09;30.90;59.70
31084;DHT22;36333;51.382;0.016;2022-07-12T14:58:37;30.80;59.90
31084;DHT22;36333;51.382;0.016;2022-07-12T15:01:04;30.60;60.30
31084;DHT22;36333;51.382;0.016;2022-07-12T15:03:32;30.50;60.50
31084;DHT22;36333;51.382;0.016;2022-07-12T15:06:01;30.40;60.80
31084;DHT22;36333;51.382;0.016;2022-07-12T15:08:29;30.30;61.10
31084;DHT22;36333;51.382;0.016;2022-07-12T15:10:56;30.30;61.50
31084;DHT22;36333;51.382;0.016;2022-07-12T15:13:24;30.30;61.70
31084;DHT22;36333;51.382;0.016;2022-07-12T15:15:51;30.30;61.70
31084;DHT22;36333;51.382;0.016;2022-07-12T15:18:19;30.10;61.50
31084;DHT22;36333;51.382;0.016;2022-07-12T15:20:46;30.30;61.90
31084;DHT22;36333;51.382;0.016;2022-07-12T15:23:14;30.30;62.00
31084;DHT22;36333;51.382;0.016;2022-07-12T15:25:41;30.30;61.90
31084;DHT22;36333;51.382;0.016;2022-07-12T15:28:09;30.30;62.50
31084;DHT22;36333;51.382;0.016;2022-07-12T15:30:36;30.40;62.20
31084;DHT22;36333;51.382;0.016;2022-07-12T15:33:04;30.30;62.20
31084;DHT22;36333;51.382;0.016;2022-07-12T15:35:31;30.20;62.10
31084;DHT22;36333;51.382;0.016;2022-07-12T15:37:59;30.20;62.50
31084;DHT22;36333;51.382;0.016;2022-07-12T15:40:26;30.10;62.70
31084;DHT22;36333;51.382;0.016;2022-07-12T15:42:54;30.10;62.50
31084;DHT22;36333;51.382;0.016;2022-07-12T15:45:22;30.00;62.50
31084;DHT22;36333;51.382;0.016;2022-07-12T15:47:49;30.00;62.70
31084;DHT22;36333;51.382;0.016;2022-07-12T15:50:17;29.90;62.80
31084;DHT22;36333;51.382;0.016;2022-07-12T15:52:44;29.90;62.60
31084;DHT22;36333;51.382;0.016;2022-07-12T15:55:30;30.00;62.60
31084;DHT22;36333;51.382;0.016;2022-07-12T15:57:58;30.00;62.00
31084;DHT22;36333;51.382;0.016;2022-07-12T16:00:26;30.00;61.70
31084;DHT22;36333;51.382;0.016;2022-07-12T16:02:53;29.90;62.30
31084;DHT22;36333;51.382;0.016;2022-07-12T16:05:22;29.90;62.50
31084;DHT22;36333;51.382;0.016;2022-07-12T16:07:49;29.90;62.50
31084;DHT22;36333;51.382;0.016;2022-07-12T16:10:19;29.90;62.80